sensor_id;sensor_type;location;lat;lon;timestamp;P1;durP1;ratioP1;P2;durP2;ratioP2
44750;SDS011;30477;48.224;11.470;2023-05-21T00:00:10;15.93;;;12.27;;
44750;SDS011;30477;48.224;11.470;2023-05-21T00:05:01;18.67;;;12.77;;
44750;SDS011;30477;48.224;11.470;2023-05-21T00:07:27;14.52;;;11.90;;
44750;SDS011;30477;48.224;11.470;2023-05-21T00:09:52;14.33;;;12.10;;
44750;SDS011;30477;48.224;11.470;2023-05-21T00:12:17;14.00;;;12.60;;
44750;SDS011;30477;48.224;11.470;2023-05-21T00:14:43;15.40;;;12.13;;
44750;SDS011;30477;48.224;11.470;2023-05-21T00:17:08;14.10;;;12.30;;
44750;SDS011;30477;48.224;11.470;2023-05-21T00:19:33;16.30;;;12.43;;
44750;SDS011;30477;48.224;11.470;2023-05-21T00:21:59;12.70;;;11.40;;
44750;SDS011;30477;48.224;11.470;2023-05-21T00:24:28;14.23;;;12.73;;
44750;SDS011;30477;48.224;11.470;2023-05-21T00:26:53;13.40;;;11.93;;
44750;SDS011;30477;48.224;11.470;2023-05-21T00:29:20;14.15;;;11.98;;
44750;SDS011;30477;48.224;11.470;2023-05-21T00:31:46;15.63;;;12.32;;
44750;SDS011;30477;48.224;11.470;2023-05-21T00:34:12;12.90;;;11.20;;
44750;SDS011;30477;48.224;11.470;2023-05-21T00:39:04;13.18;;;11.50;;
44750;SDS011;30477;48.224;11.470;2023-05-21T00:41:30;14.85;;;11.52;;
44750;SDS011;30477;48.224;11.470;2023-05-21T00:43:55;16.20;;;11.97;;
44750;SDS011;30477;48.224;11.470;2023-05-21T00:46:24;14.20;;;11.50;;
44750;SDS011;30477;48.224;11.470;2023-05-21T00:48:52;13.10;;;11.65;;
44750;SDS011;30477;48.224;11.470;2023-05-21T00:51:18;15.15;;;12.15;;
44750;SDS011;30477;48.224;11.470;2023-05-21T00:53:45;13.75;;;11.55;;
44750;SDS011;30477;48.224;11.470;2023-05-21T00:56:13;13.98;;;11.82;;
44750;SDS011;30477;48.224;11.470;2023-05-21T00:58:38;14.00;;;11.83;;
44750;SDS011;30477;48.224;11.470;2023-05-21T01:03:31;13.27;;;11.60;;
44750;SDS011;30477;48.224;11.470;2023-05-21T01:06:06;14.90;;;12.23;;
44750;SDS011;30477;48.224;11.470;2023-05-21T01:08:32;13.02;;;11.68;;
44750;SDS011;30477;48.224;11.470;2023-05-21T01:11:02;14.32;;;12.35;;
44750;SDS011;30477;48.224;11.470;2023-05-21T01:13:29;14.80;;;11.63;;
44750;SDS011;30477;48.224;11.470;2023-05-21T01:15:55;14.82;;;11.35;;
44750;SDS011;30477;48.224;11.470;2023-05-21T01:18:22;14.23;;;11.80;;
44750;SDS011;30477;48.224;11.470;2023-05-21T01:20:48;13.07;;;11.68;;
44750;SDS011;30477;48.224;11.470;2023-05-21T01:23:17;12.90;;;10.77;;
44750;SDS011;30477;48.224;11.470;2023-05-21T01:25:44;13.90;;;11.15;;
44750;SDS011;30477;48.224;11.470;2023-05-21T01:30:36;12.82;;;11.52;;
44750;SDS011;30477;48.224;11.470;2023-05-21T01:35:34;13.52;;;11.27;;
44750;SDS011;30477;48.224;11.470;2023-05-21T01:40:53;12.65;;;10.73;;
44750;SDS011;30477;48.224;11.470;2023-05-21T01:43:27;14.02;;;11.02;;
44750;SDS011;30477;48.224;11.470;2023-05-21T01:45:55;13.20;;;11.80;;
44750;SDS011;30477;48.224;11.470;2023-05-21T01:48:23;13.32;;;11.52;;
44750;SDS011;30477;48.224;11.470;2023-05-21T01:50:51;12.95;;;11.57;;
44750;SDS011;30477;48.224;11.470;2023-05-21T01:53:19;12.35;;;10.88;;
44750;SDS011;30477;48.224;11.470;2023-05-21T01:55:45;12.18;;;10.98;;
44750;SDS011;30477;48.224;11.470;2023-05-21T01:58:11;16.17;;;11.00;;
44750;SDS011;30477;48.224;11.470;2023-05-21T02:00:36;15.63;;;10.87;;
44750;SDS011;30477;48.224;11.470;2023-05-21T02:03:03;11.20;;;10.00;;
44750;SDS011;30477;48.224;11.470;2023-05-21T02:05:29;11.50;;;10.40;;
44750;SDS011;30477;48.224;11.470;2023-05-21T02:07:55;11.73;;;10.53;;
44750;SDS011;30477;48.224;11.470;2023-05-21T02:10:20;16.63;;;10.88;;
44750;SDS011;30477;48.224;11.470;2023-05-21T02:12:46;13.97;;;11.50;;
44750;SDS011;30477;48.224;11.470;2023-05-21T02:15:11;11.93;;;10.63;;
44750;SDS011;30477;48.224;11.470;2023-05-21T02:17:42;13.02;;;10.80;;
44750;SDS011;30477;48.224;11.470;2023-05-21T02:22:37;13.57;;;10.80;;
44750;SDS011;30477;48.224;11.470;2023-05-21T02:25:07;13.38;;;10.93;;
44750;SDS011;30477;48.224;11.470;2023-05-21T02:27:36;13.45;;;11.27;;
44750;SDS011;30477;48.224;11.470;2023-05-21T02:30:02;12.15;;;10.95;;
44750;SDS011;30477;48.224;11.470;2023-05-21T02:32:29;14.20;;;11.77;;
44750;SDS011;30477;48.224;11.470;2023-05-21T02:34:56;12.32;;;10.98;;
44750;SDS011;30477;48.224;11.470;2023-05-21T02:37:22;14.35;;;11.73;;
44750;SDS011;30477;48.224;11.470;2023-05-21T02:39:48;13.37;;;11.83;;
44750;SDS011;30477;48.224;11.470;2023-05-21T02:42:13;12.33;;;10.97;;
44750;SDS011;30477;48.224;11.470;2023-05-21T02:44:38;13.57;;;12.13;;
44750;SDS011;30477;48.224;11.470;2023-05-21T02:47:04;13.60;;;12.07;;
44750;SDS011;30477;48.224;11.470;2023-05-21T02:49:30;16.73;;;12.18;;
44750;SDS011;30477;48.224;11.470;2023-05-21T02:51:55;13.37;;;11.97;;
44750;SDS011;30477;48.224;11.470;2023-05-21T02:54:21;14.43;;;11.83;;
44750;SDS011;30477;48.224;11.470;2023-05-21T02:56:46;11.87;;;10.43;;
44750;SDS011;30477;48.224;11.470;2023-05-21T02:59:11;12.40;;;11.10;;
44750;SDS011;30477;48.224;11.470;2023-05-21T03:01:37;12.27;;;10.80;;
44750;SDS011;30477;48.224;11.470;2023-05-21T03:04:02;12.33;;;10.93;;
44750;SDS011;30477;48.224;11.470;2023-05-21T03:06:27;13.47;;;11.30;;
44750;SDS011;30477;48.224;11.470;2023-05-21T03:08:53;12.70;;;11.30;;
44750;SDS011;30477;48.224;11.470;2023-05-21T03:11:18;13.00;;;11.17;;
44750;SDS011;30477;48.224;11.470;2023-05-21T03:13:44;13.57;;;10.83;;
44750;SDS011;30477;48.224;11.470;2023-05-21T03:16:09;11.37;;;10.10;;
44750;SDS011;30477;48.224;11.470;2023-05-21T03:18:35;11.40;;;9.95;;
44750;SDS011;30477;48.224;11.470;2023-05-21T03:21:00;13.50;;;10.73;;
44750;SDS011;30477;48.224;11.470;2023-05-21T03:23:26;15.30;;;11.77;;
44750;SDS011;30477;48.224;11.470;2023-05-21T03:25:51;16.17;;;11.67;;
44750;SDS011;30477;48.224;11.470;2023-05-21T03:28:16;12.37;;;10.97;;
44750;SDS011;30477;48.224;11.470;2023-05-21T03:30:42;13.88;;;10.57;;
44750;SDS011;30477;48.224;11.470;2023-05-21T03:33:13;13.10;;;11.30;;
44750;SDS011;30477;48.224;11.470;2023-05-21T03:35:39;12.52;;;10.55;;
44750;SDS011;30477;48.224;11.470;2023-05-21T03:38:04;12.07;;;10.77;;
44750;SDS011;30477;48.224;11.470;2023-05-21T03:40:30;14.33;;;10.67;;
44750;SDS011;30477;48.224;11.470;2023-05-21T03:42:55;11.17;;;9.97;;
44750;SDS011;30477;48.224;11.470;2023-05-21T03:45:20;12.03;;;10.17;;
44750;SDS011;30477;48.224;11.470;2023-05-21T03:47:46;14.83;;;10.97;;
44750;SDS011;30477;48.224;11.470;2023-05-21T03:50:12;14.68;;;10.52;;
44750;SDS011;30477;48.224;11.470;2023-05-21T03:52:38;12.93;;;11.40;;
44750;SDS011;30477;48.224;11.470;2023-05-21T03:55:03;15.13;;;11.30;;
44750;SDS011;30477;48.224;11.470;2023-05-21T03:57:29;16.67;;;11.85;;
44750;SDS011;30477;48.224;11.470;2023-05-21T03:59:54;13.80;;;11.03;;
44750;SDS011;30477;48.224;11.470;2023-05-21T04:02:22;13.80;;;11.15;;
44750;SDS011;30477;48.224;11.470;2023-05-21T04:04:49;12.55;;;11.25;;
44750;SDS011;30477;48.224;11.470;2023-05-21T04:07:15;12.57;;;11.10;;
44750;SDS011;30477;48.224;11.470;2023-05-21T04:09:43;14.00;;;11.13;;
44750;SDS011;30477;48.224;11.470;2023-05-21T04:12:08;14.87;;;10.63;;
44750;SDS011;30477;48.224;11.470;2023-05-21T04:14:34;12.57;;;11.23;;
44750;SDS011;30477;48.224;11.470;2023-05-21T04:17:01;14.93;;;10.50;;
44750;SDS011;30477;48.224;11.470;2023-05-21T04:19:28;13.82;;;10.68;;
44750;SDS011;30477;48.224;11.470;2023-05-21T04:21:54;12.88;;;10.73;;
44750;SDS011;30477;48.224;11.470;2023-05-21T04:24:20;14.32;;;11.07;;
44750;SDS011;30477;48.224;11.470;2023-05-21T04:29:12;15.90;;;11.00;;
44750;SDS011;30477;48.224;11.470;2023-05-21T04:31:37;11.17;;;9.60;;
44750;SDS011;30477;48.224;11.470;2023-05-21T04:34:02;12.07;;;10.60;;
44750;SDS011;30477;48.224;11.470;2023-05-21T04:36:28;12.52;;;9.77;;
44750;SDS011;30477;48.224;11.470;2023-05-21T04:38:54;12.43;;;10.53;;
44750;SDS011;30477;48.224;11.470;2023-05-21T04:41:20;12.27;;;10.50;;
44750;SDS011;30477;48.224;11.470;2023-05-21T04:43:45;13.40;;;10.70;;
44750;SDS011;30477;48.224;11.470;2023-05-21T04:46:11;11.65;;;10.27;;
44750;SDS011;30477;48.224;11.470;2023-05-21T04:48:36;11.07;;;9.83;;
44750;SDS011;30477;48.224;11.470;2023-05-21T04:51:02;12.90;;;9.67;;
44750;SDS011;30477;48.224;11.470;2023-05-21T04:53:29;12.82;;;10.40;;
44750;SDS011;30477;48.224;11.470;2023-05-21T04:55:55;11.63;;;10.02;;
44750;SDS011;30477;48.224;11.470;2023-05-21T04:58:23;10.95;;;9.77;;
44750;SDS011;30477;48.224;11.470;2023-05-21T05:00:49;11.60;;;9.50;;
44750;SDS011;30477;48.224;11.470;2023-05-21T05:03:15;12.32;;;10.18;;
44750;SDS011;30477;48.224;11.470;2023-05-21T05:05:41;13.10;;;10.57;;
44750;SDS011;30477;48.224;11.470;2023-05-21T05:08:06;12.77;;;10.30;;
44750;SDS011;30477;48.224;11.470;2023-05-21T05:10:32;12.98;;;9.65;;
44750;SDS011;30477;48.224;11.470;2023-05-21T05:12:58;12.57;;;10.07;;
44750;SDS011;30477;48.224;11.470;2023-05-21T05:15:23;14.05;;;10.95;;
44750;SDS011;30477;48.224;11.470;2023-05-21T05:17:49;11.13;;;9.43;;
44750;SDS011;30477;48.224;11.470;2023-05-21T05:20:14;12.83;;;9.77;;
44750;SDS011;30477;48.224;11.470;2023-05-21T05:22:40;11.52;;;10.05;;
44750;SDS011;30477;48.224;11.470;2023-05-21T05:25:05;11.53;;;9.67;;
44750;SDS011;30477;48.224;11.470;2023-05-21T05:27:31;11.18;;;9.68;;
44750;SDS011;30477;48.224;11.470;2023-05-21T05:29:57;10.40;;;9.35;;
44750;SDS011;30477;48.224;11.470;2023-05-21T05:32:22;13.90;;;9.80;;
44750;SDS011;30477;48.224;11.470;2023-05-21T05:34:47;16.60;;;10.70;;
44750;SDS011;30477;48.224;11.470;2023-05-21T05:37:13;13.33;;;9.83;;
44750;SDS011;30477;48.224;11.470;2023-05-21T05:39:38;13.43;;;9.97;;
44750;SDS011;30477;48.224;11.470;2023-05-21T05:42:03;13.90;;;10.27;;
44750;SDS011;30477;48.224;11.470;2023-05-21T05:44:29;11.50;;;10.05;;
44750;SDS011;30477;48.224;11.470;2023-05-21T05:46:54;11.97;;;10.00;;
44750;SDS011;30477;48.224;11.470;2023-05-21T05:49:20;11.00;;;9.90;;
44750;SDS011;30477;48.224;11.470;2023-05-21T05:51:45;12.73;;;10.00;;
44750;SDS011;30477;48.224;11.470;2023-05-21T05:54:11;11.43;;;9.50;;
44750;SDS011;30477;48.224;11.470;2023-05-21T05:56:36;10.43;;;9.37;;
44750;SDS011;30477;48.224;11.470;2023-05-21T05:59:01;11.27;;;9.83;;
44750;SDS011;30477;48.224;11.470;2023-05-21T06:01:27;12.93;;;9.10;;
44750;SDS011;30477;48.224;11.470;2023-05-21T06:03:52;12.10;;;9.77;;
44750;SDS011;30477;48.224;11.470;2023-05-21T06:06:17;10.00;;;8.80;;
44750;SDS011;30477;48.224;11.470;2023-05-21T06:08:43;13.90;;;9.97;;
44750;SDS011;30477;48.224;11.470;2023-05-21T06:11:08;11.57;;;9.20;;
44750;SDS011;30477;48.224;11.470;2023-05-21T06:13:34;11.68;;;8.90;;
44750;SDS011;30477;48.224;11.470;2023-05-21T06:16:00;11.07;;;9.50;;
44750;SDS011;30477;48.224;11.470;2023-05-21T06:18:25;13.23;;;9.73;;
44750;SDS011;30477;48.224;11.470;2023-05-21T06:20:51;10.40;;;9.30;;
44750;SDS011;30477;48.224;11.470;2023-05-21T06:23:16;11.03;;;9.60;;
44750;SDS011;30477;48.224;11.470;2023-05-21T06:25:42;9.60;;;8.60;;
44750;SDS011;30477;48.224;11.470;2023-05-21T06:28:07;10.73;;;9.10;;
44750;SDS011;30477;48.224;11.470;2023-05-21T06:30:32;9.90;;;8.90;;
44750;SDS011;30477;48.224;11.470;2023-05-21T06:32:58;10.27;;;9.17;;
44750;SDS011;30477;48.224;11.470;2023-05-21T06:35:23;11.43;;;8.90;;
44750;SDS011;30477;48.224;11.470;2023-05-21T06:37:48;11.67;;;9.07;;
44750;SDS011;30477;48.224;11.470;2023-05-21T06:40:14;11.93;;;9.13;;
44750;SDS011;30477;48.224;11.470;2023-05-21T06:42:39;10.17;;;9.07;;
44750;SDS011;30477;48.224;11.470;2023-05-21T06:45:05;9.80;;;8.63;;
44750;SDS011;30477;48.224;11.470;2023-05-21T06:47:30;12.30;;;9.27;;
44750;SDS011;30477;48.224;11.470;2023-05-21T06:49:56;9.63;;;8.57;;
44750;SDS011;30477;48.224;11.470;2023-05-21T06:52:21;11.27;;;8.83;;
44750;SDS011;30477;48.224;11.470;2023-05-21T06:54:46;10.90;;;8.30;;
44750;SDS011;30477;48.224;11.470;2023-05-21T06:57:13;10.47;;;8.93;;
44750;SDS011;30477;48.224;11.470;2023-05-21T06:59:39;11.23;;;8.32;;
44750;SDS011;30477;48.224;11.470;2023-05-21T07:02:05;9.90;;;7.87;;
44750;SDS011;30477;48.224;11.470;2023-05-21T07:04:30;9.80;;;8.38;;
44750;SDS011;30477;48.224;11.470;2023-05-21T07:06:56;9.00;;;7.90;;
44750;SDS011;30477;48.224;11.470;2023-05-21T07:09:21;8.90;;;7.87;;
44750;SDS011;30477;48.224;11.470;2023-05-21T07:11:46;8.43;;;7.32;;
44750;SDS011;30477;48.224;11.470;2023-05-21T07:14:12;9.20;;;7.23;;
44750;SDS011;30477;48.224;11.470;2023-05-21T07:16:37;8.17;;;7.27;;
44750;SDS011;30477;48.224;11.470;2023-05-21T07:19:03;8.80;;;7.82;;
44750;SDS011;30477;48.224;11.470;2023-05-21T07:21:28;8.20;;;7.40;;
44750;SDS011;30477;48.224;11.470;2023-05-21T07:23:56;10.83;;;7.33;;
44750;SDS011;30477;48.224;11.470;2023-05-21T07:26:22;10.65;;;7.35;;
44750;SDS011;30477;48.224;11.470;2023-05-21T07:28:47;8.60;;;7.03;;
44750;SDS011;30477;48.224;11.470;2023-05-21T07:31:12;8.17;;;7.37;;
44750;SDS011;30477;48.224;11.470;2023-05-21T07:33:38;7.43;;;6.47;;
44750;SDS011;30477;48.224;11.470;2023-05-21T07:36:03;7.60;;;6.90;;
44750;SDS011;30477;48.224;11.470;2023-05-21T07:38:29;9.02;;;7.00;;
44750;SDS011;30477;48.224;11.470;2023-05-21T07:40:55;8.57;;;7.30;;
44750;SDS011;30477;48.224;11.470;2023-05-21T07:43:21;9.30;;;6.75;;
44750;SDS011;30477;48.224;11.470;2023-05-21T07:45:46;7.87;;;6.70;;
44750;SDS011;30477;48.224;11.470;2023-05-21T07:48:12;8.90;;;6.80;;
44750;SDS011;30477;48.224;11.470;2023-05-21T07:53:03;7.57;;;6.80;;
44750;SDS011;30477;48.224;11.470;2023-05-21T07:55:28;8.37;;;6.30;;
44750;SDS011;30477;48.224;11.470;2023-05-21T07:57:54;7.13;;;6.43;;
44750;SDS011;30477;48.224;11.470;2023-05-21T08:00:21;7.68;;;6.18;;
44750;SDS011;30477;48.224;11.470;2023-05-21T08:02:47;6.57;;;5.97;;
44750;SDS011;30477;48.224;11.470;2023-05-21T08:05:13;6.57;;;5.97;;
44750;SDS011;30477;48.224;11.470;2023-05-21T08:07:40;7.53;;;6.75;;
44750;SDS011;30477;48.224;11.470;2023-05-21T08:10:05;7.15;;;6.53;;
44750;SDS011;30477;48.224;11.470;2023-05-21T08:12:31;7.53;;;6.32;;
44750;SDS011;30477;48.224;11.470;2023-05-21T08:14:56;8.20;;;6.60;;
44750;SDS011;30477;48.224;11.470;2023-05-21T08:17:23;8.50;;;6.47;;
44750;SDS011;30477;48.224;11.470;2023-05-21T08:19:48;7.20;;;6.50;;
44750;SDS011;30477;48.224;11.470;2023-05-21T08:22:14;7.13;;;6.10;;
44750;SDS011;30477;48.224;11.470;2023-05-21T08:27:05;10.57;;;6.97;;
44750;SDS011;30477;48.224;11.470;2023-05-21T08:29:31;8.15;;;7.18;;
44750;SDS011;30477;48.224;11.470;2023-05-21T08:31:57;8.38;;;7.28;;
44750;SDS011;30477;48.224;11.470;2023-05-21T08:34:22;7.90;;;7.20;;
44750;SDS011;30477;48.224;11.470;2023-05-21T08:36:48;9.52;;;7.60;;
44750;SDS011;30477;48.224;11.470;2023-05-21T08:39:14;10.02;;;7.75;;
44750;SDS011;30477;48.224;11.470;2023-05-21T08:41:39;7.97;;;7.20;;
44750;SDS011;30477;48.224;11.470;2023-05-21T08:44:10;8.57;;;7.63;;
44750;SDS011;30477;48.224;11.470;2023-05-21T08:46:36;8.48;;;7.50;;
44750;SDS011;30477;48.224;11.470;2023-05-21T08:49:05;9.18;;;7.82;;
44750;SDS011;30477;48.224;11.470;2023-05-21T08:51:33;8.55;;;7.75;;
44750;SDS011;30477;48.224;11.470;2023-05-21T08:54:03;8.63;;;7.72;;
44750;SDS011;30477;48.224;11.470;2023-05-21T08:56:30;10.75;;;7.82;;
44750;SDS011;30477;48.224;11.470;2023-05-21T08:58:57;9.02;;;8.13;;
44750;SDS011;30477;48.224;11.470;2023-05-21T09:01:23;9.20;;;8.30;;
44750;SDS011;30477;48.224;11.470;2023-05-21T09:03:50;8.80;;;7.90;;
44750;SDS011;30477;48.224;11.470;2023-05-21T09:06:17;9.27;;;8.32;;
44750;SDS011;30477;48.224;11.470;2023-05-21T09:08:43;9.32;;;8.00;;
44750;SDS011;30477;48.224;11.470;2023-05-21T09:11:13;10.80;;;8.32;;
44750;SDS011;30477;48.224;11.470;2023-05-21T09:13:40;9.18;;;8.27;;
44750;SDS011;30477;48.224;11.470;2023-05-21T09:16:08;8.98;;;8.07;;
44750;SDS011;30477;48.224;11.470;2023-05-21T09:18:34;10.02;;;8.20;;
44750;SDS011;30477;48.224;11.470;2023-05-21T09:21:21;9.07;;;7.73;;
44750;SDS011;30477;48.224;11.470;2023-05-21T09:23:54;10.57;;;7.95;;
44750;SDS011;30477;48.224;11.470;2023-05-21T09:26:21;8.32;;;7.45;;
44750;SDS011;30477;48.224;11.470;2023-05-21T09:28:47;9.93;;;7.63;;
44750;SDS011;30477;48.224;11.470;2023-05-21T09:31:13;8.80;;;7.93;;
44750;SDS011;30477;48.224;11.470;2023-05-21T09:33:44;8.70;;;7.33;;
44750;SDS011;30477;48.224;11.470;2023-05-21T09:36:11;9.07;;;8.02;;
44750;SDS011;30477;48.224;11.470;2023-05-21T09:38:36;9.13;;;8.17;;
44750;SDS011;30477;48.224;11.470;2023-05-21T09:41:05;8.80;;;7.90;;
44750;SDS011;30477;48.224;11.470;2023-05-21T09:43:31;10.48;;;7.60;;
44750;SDS011;30477;48.224;11.470;2023-05-21T09:45:56;11.35;;;8.07;;
44750;SDS011;30477;48.224;11.470;2023-05-21T09:48:36;8.40;;;7.60;;
44750;SDS011;30477;48.224;11.470;2023-05-21T09:51:10;8.00;;;7.20;;
44750;SDS011;30477;48.224;11.470;2023-05-21T09:53:36;7.85;;;6.82;;
44750;SDS011;30477;48.224;11.470;2023-05-21T09:56:07;8.38;;;7.47;;
44750;SDS011;30477;48.224;11.470;2023-05-21T09:58:33;8.70;;;7.22;;
44750;SDS011;30477;48.224;11.470;2023-05-21T10:00:58;8.27;;;7.50;;
44750;SDS011;30477;48.224;11.470;2023-05-21T10:03:24;7.45;;;6.68;;
44750;SDS011;30477;48.224;11.470;2023-05-21T10:05:52;8.38;;;7.57;;
44750;SDS011;30477;48.224;11.470;2023-05-21T10:08:19;9.13;;;7.65;;
44750;SDS011;30477;48.224;11.470;2023-05-21T10:10:48;8.85;;;7.95;;
44750;SDS011;30477;48.224;11.470;2023-05-21T10:13:15;8.85;;;7.28;;
44750;SDS011;30477;48.224;11.470;2023-05-21T10:15:47;8.60;;;7.80;;
44750;SDS011;30477;48.224;11.470;2023-05-21T10:18:17;12.05;;;7.82;;
44750;SDS011;30477;48.224;11.470;2023-05-21T10:20:45;8.73;;;7.82;;
44750;SDS011;30477;48.224;11.470;2023-05-21T10:23:11;8.98;;;7.93;;
44750;SDS011;30477;48.224;11.470;2023-05-21T10:25:37;8.68;;;6.93;;
44750;SDS011;30477;48.224;11.470;2023-05-21T10:28:03;11.40;;;7.85;;
44750;SDS011;30477;48.224;11.470;2023-05-21T10:30:31;10.30;;;7.70;;
44750;SDS011;30477;48.224;11.470;2023-05-21T10:32:56;8.52;;;7.72;;
44750;SDS011;30477;48.224;11.470;2023-05-21T10:35:23;9.30;;;7.82;;
44750;SDS011;30477;48.224;11.470;2023-05-21T10:40:15;9.50;;;8.13;;
44750;SDS011;30477;48.224;11.470;2023-05-21T10:52:34;13.45;;;7.85;;
44750;SDS011;30477;48.224;11.470;2023-05-21T10:55:33;8.90;;;7.90;;
44750;SDS011;30477;48.224;11.470;2023-05-21T11:00:43;8.27;;;7.18;;
44750;SDS011;30477;48.224;11.470;2023-05-21T11:03:09;8.10;;;7.30;;
44750;SDS011;30477;48.224;11.470;2023-05-21T11:05:39;8.70;;;7.50;;
44750;SDS011;30477;48.224;11.470;2023-05-21T11:08:17;9.43;;;8.02;;
44750;SDS011;30477;48.224;11.470;2023-05-21T11:10:48;7.78;;;6.97;;
44750;SDS011;30477;48.224;11.470;2023-05-21T11:13:15;8.68;;;6.80;;
44750;SDS011;30477;48.224;11.470;2023-05-21T11:21:20;8.68;;;7.72;;
44750;SDS011;30477;48.224;11.470;2023-05-21T11:23:52;7.43;;;6.70;;
44750;SDS011;30477;48.224;11.470;2023-05-21T11:26:21;7.28;;;6.57;;
44750;SDS011;30477;48.224;11.470;2023-05-21T11:31:28;8.68;;;6.93;;
44750;SDS011;30477;48.224;11.470;2023-05-21T11:34:20;8.75;;;6.18;;
44750;SDS011;30477;48.224;11.470;2023-05-21T11:37:21;7.18;;;6.47;;
44750;SDS011;30477;48.224;11.470;2023-05-21T11:39:56;8.13;;;6.60;;
44750;SDS011;30477;48.224;11.470;2023-05-21T11:44:58;7.15;;;6.45;;
44750;SDS011;30477;48.224;11.470;2023-05-21T11:47:25;7.13;;;6.10;;
44750;SDS011;30477;48.224;11.470;2023-05-21T11:49:52;9.10;;;6.43;;
44750;SDS011;30477;48.224;11.470;2023-05-21T11:52:17;6.45;;;5.85;;
44750;SDS011;30477;48.224;11.470;2023-05-21T11:54:47;8.30;;;6.00;;
44750;SDS011;30477;48.224;11.470;2023-05-21T11:57:15;6.90;;;6.15;;
44750;SDS011;30477;48.224;11.470;2023-05-21T11:59:47;7.88;;;7.03;;
44750;SDS011;30477;48.224;11.470;2023-05-21T12:02:18;8.50;;;7.10;;
44750;SDS011;30477;48.224;11.470;2023-05-21T12:04:45;7.80;;;7.05;;
44750;SDS011;30477;48.224;11.470;2023-05-21T12:07:13;7.82;;;6.85;;
44750;SDS011;30477;48.224;11.470;2023-05-21T12:09:49;9.10;;;7.13;;
44750;SDS011;30477;48.224;11.470;2023-05-21T12:12:23;7.47;;;6.72;;
44750;SDS011;30477;48.224;11.470;2023-05-21T12:14:50;7.70;;;6.90;;
44750;SDS011;30477;48.224;11.470;2023-05-21T12:17:17;7.78;;;6.75;;
44750;SDS011;30477;48.224;11.470;2023-05-21T12:19:44;9.05;;;7.32;;
44750;SDS011;30477;48.224;11.470;2023-05-21T12:22:11;8.18;;;7.47;;
44750;SDS011;30477;48.224;11.470;2023-05-21T12:24:37;10.75;;;7.82;;
44750;SDS011;30477;48.224;11.470;2023-05-21T12:27:03;9.48;;;7.68;;
44750;SDS011;30477;48.224;11.470;2023-05-21T12:29:37;8.05;;;6.85;;
44750;SDS011;30477;48.224;11.470;2023-05-21T12:32:05;8.23;;;7.43;;
44750;SDS011;30477;48.224;11.470;2023-05-21T12:34:51;7.82;;;7.00;;
44750;SDS011;30477;48.224;11.470;2023-05-21T12:37:26;9.43;;;6.50;;
44750;SDS011;30477;48.224;11.470;2023-05-21T12:39:57;11.13;;;7.40;;
44750;SDS011;30477;48.224;11.470;2023-05-21T12:42:26;7.95;;;7.15;;
44750;SDS011;30477;48.224;11.470;2023-05-21T12:44:56;10.25;;;7.80;;
44750;SDS011;30477;48.224;11.470;2023-05-21T12:49:52;8.75;;;7.10;;
44750;SDS011;30477;48.224;11.470;2023-05-21T12:52:24;8.82;;;7.50;;
44750;SDS011;30477;48.224;11.470;2023-05-21T12:54:51;8.30;;;6.63;;
44750;SDS011;30477;48.224;11.470;2023-05-21T12:57:18;8.15;;;7.30;;
44750;SDS011;30477;48.224;11.470;2023-05-21T12:59:54;7.85;;;6.95;;
44750;SDS011;30477;48.224;11.470;2023-05-21T13:02:22;9.23;;;7.30;;
44750;SDS011;30477;48.224;11.470;2023-05-21T13:04:59;8.75;;;7.32;;
44750;SDS011;30477;48.224;11.470;2023-05-21T13:07:25;7.45;;;6.60;;
44750;SDS011;30477;48.224;11.470;2023-05-21T13:09:52;7.45;;;6.53;;
44750;SDS011;30477;48.224;11.470;2023-05-21T13:12:19;8.00;;;6.47;;
44750;SDS011;30477;48.224;11.470;2023-05-21T13:14:45;10.57;;;6.40;;
44750;SDS011;30477;48.224;11.470;2023-05-21T13:17:11;8.88;;;6.90;;
44750;SDS011;30477;48.224;11.470;2023-05-21T13:19:36;8.00;;;6.70;;
44750;SDS011;30477;48.224;11.470;2023-05-21T13:22:02;8.67;;;7.27;;
44750;SDS011;30477;48.224;11.470;2023-05-21T13:24:27;9.55;;;6.90;;
44750;SDS011;30477;48.224;11.470;2023-05-21T13:26:53;7.60;;;6.90;;
44750;SDS011;30477;48.224;11.470;2023-05-21T13:29:18;7.33;;;6.53;;
44750;SDS011;30477;48.224;11.470;2023-05-21T13:31:43;7.03;;;6.20;;
44750;SDS011;30477;48.224;11.470;2023-05-21T13:34:10;8.55;;;7.07;;
44750;SDS011;30477;48.224;11.470;2023-05-21T13:36:36;7.00;;;6.32;;
44750;SDS011;30477;48.224;11.470;2023-05-21T13:39:02;11.98;;;7.10;;
44750;SDS011;30477;48.224;11.470;2023-05-21T13:43:53;8.73;;;6.93;;
44750;SDS011;30477;48.224;11.470;2023-05-21T13:46:18;7.97;;;7.07;;
44750;SDS011;30477;48.224;11.470;2023-05-21T13:48:44;7.57;;;6.68;;
44750;SDS011;30477;48.224;11.470;2023-05-21T13:51:09;8.90;;;6.43;;
44750;SDS011;30477;48.224;11.470;2023-05-21T13:53:34;7.13;;;6.40;;
44750;SDS011;30477;48.224;11.470;2023-05-21T13:56:00;8.03;;;7.07;;
44750;SDS011;30477;48.224;11.470;2023-05-21T13:58:25;7.63;;;6.83;;
44750;SDS011;30477;48.224;11.470;2023-05-21T14:00:51;12.15;;;7.00;;
44750;SDS011;30477;48.224;11.470;2023-05-21T14:03:17;8.48;;;7.22;;
44750;SDS011;30477;48.224;11.470;2023-05-21T14:05:43;10.20;;;6.75;;
44750;SDS011;30477;48.224;11.470;2023-05-21T14:10:34;7.47;;;6.53;;
44750;SDS011;30477;48.224;11.470;2023-05-21T14:12:59;8.32;;;7.50;;
44750;SDS011;30477;48.224;11.470;2023-05-21T14:15:24;11.70;;;6.90;;
44750;SDS011;30477;48.224;11.470;2023-05-21T14:17:50;10.38;;;7.28;;
44750;SDS011;30477;48.224;11.470;2023-05-21T14:20:16;9.00;;;6.68;;
44750;SDS011;30477;48.224;11.470;2023-05-21T14:25:07;7.97;;;7.03;;
44750;SDS011;30477;48.224;11.470;2023-05-21T14:27:32;7.72;;;6.85;;
44750;SDS011;30477;48.224;11.470;2023-05-21T14:29:58;8.07;;;7.13;;
44750;SDS011;30477;48.224;11.470;2023-05-21T14:32:23;8.47;;;6.70;;
44750;SDS011;30477;48.224;11.470;2023-05-21T14:34:48;8.75;;;6.82;;
44750;SDS011;30477;48.224;11.470;2023-05-21T14:37:14;9.80;;;7.07;;
44750;SDS011;30477;48.224;11.470;2023-05-21T14:39:39;8.43;;;6.80;;
44750;SDS011;30477;48.224;11.470;2023-05-21T14:42:04;9.13;;;6.90;;
44750;SDS011;30477;48.224;11.470;2023-05-21T14:44:30;7.40;;;6.70;;
44750;SDS011;30477;48.224;11.470;2023-05-21T14:46:56;8.20;;;7.05;;
44750;SDS011;30477;48.224;11.470;2023-05-21T14:51:47;8.53;;;7.23;;
44750;SDS011;30477;48.224;11.470;2023-05-21T14:54:12;7.90;;;7.10;;
44750;SDS011;30477;48.224;11.470;2023-05-21T14:56:38;10.73;;;6.95;;
44750;SDS011;30477;48.224;11.470;2023-05-21T14:59:03;10.53;;;6.83;;
44750;SDS011;30477;48.224;11.470;2023-05-21T15:01:28;8.27;;;7.40;;
44750;SDS011;30477;48.224;11.470;2023-05-21T15:03:54;8.65;;;7.00;;
44750;SDS011;30477;48.224;11.470;2023-05-21T15:06:20;8.43;;;6.88;;
44750;SDS011;30477;48.224;11.470;2023-05-21T15:08:46;8.48;;;6.35;;
44750;SDS011;30477;48.224;11.470;2023-05-21T15:11:11;8.27;;;6.63;;
44750;SDS011;30477;48.224;11.470;2023-05-21T15:13:37;7.25;;;6.38;;
44750;SDS011;30477;48.224;11.470;2023-05-21T15:16:02;10.48;;;7.03;;
44750;SDS011;30477;48.224;11.470;2023-05-21T15:18:28;11.55;;;7.22;;
44750;SDS011;30477;48.224;11.470;2023-05-21T15:20:53;7.45;;;6.45;;
44750;SDS011;30477;48.224;11.470;2023-05-21T15:23:18;9.47;;;7.30;;